Aérodrome :
LOGIN :

S'inscrire | Disclaimer

   EN    FR    IT 

 










Légende :    VFR   VFR Marginal   IFR   IFR Intensif   IFR Très Intensif
Visi : 
Plafond : 
>= 8 km
>= 3000ft
5 à 8 km
1000 à 3000 ft
1500m à 5 km
500 à 1000 ft
800 à 1500m
200 à 500 ft
< 800m
< 200 ft
Symboles :   Orages  Brouillard  Fortes neiges  Fortes précipitations  Vent > 20 kt
SIGMETs :   Divers  Orages  Givrage  Turbulence  Onde Orograph.  Cendres Volcan.







- Altitude de l'aérodrome : 144 ft
- Code IATA : PGF
- Voir les cartes d'approche


LFMP - Perpignan

DERNIER METAR :
  • 262200Z AUTO 11004KT 050V160 9999 OVC013 19/16 Q1017

METARs EXPIRÉS :
  • 262130Z AUTO 10004KT 050V120 9999 OVC011 19/16 Q1017 TEMPO 2000 BR OVC003
  • 262100Z AUTO 10004KT 060V140 9999 OVC011 19/16 Q1017 TEMPO 2000 BR OVC003
  • 262030Z AUTO 08004KT 9999 OVC012 19/16 Q1017 TEMPO 2000 BR OVC003
  • 262000Z AUTO 08004KT 9999 OVC012 19/16 Q1016 TEMPO 2000 BR OVC003
  • 261930Z AUTO 07004KT 9999 OVC012 19/16 Q1016 TEMPO 2000 BR OVC003

TAF TAF LFMP
Valide du 26 à 15h jusqu'au 27 à 15h UTC


261400Z 2615/2715 09008KT CAVOK
BECMG 2617/2619 BKN010
TEMPO 2619/2706 2000 BR OVC003
BECMG 2708/2710 BKN015
TEMPO 2710/2715 NSC
ATIS : +33 4 68 63 75 12
Pas de NOTAMs connus pour ce terrain.



MET'MAP, la Météo Aéronautique d'un coup d'oeil ! - Copyright ORBIFLY Décembre 2007 - Disclaimer

ORBIFLY MET'MAP TEAM :

Programmation & Développement : Alexandra Zaïnal
Conception & Développement : Baudouin d'Aumeries
Co-Programmation & Développement : Marc-Olivier Méhu
Soutien technique & logistique : Manuel Goepfert

Contact : metmap@orbifly.com




SOURCES & CREDITS :

   NOAA